A- A+ FrançaisEnglishEspañol中国

Services sur Internet Soldes sur Internet Des idées de cadeaux Météo Météo aéro

La météo à : Autours de vous Le-Puy-LoudesTarbes-Lourdes-PyrénéesPau-PyrénéesRennes-St-Jacques

La météo aéronautique pour les pilotes, la préparation du vol avec les METAR (METeorological Aerodrome Report, message d'observation des conditions météorologiques pour l'aviation) et Les TAF (Terminal Aerodrome Forecast : message de prévision à court terme des conditions météorologiques pour l'aviation). Et les autres ressources comme les VAC (Visual Approch Chart) et les NOTAM (Notice To Airman) pour préprer les vols.

Aéroport Antwerpen Deurne (Belgique) / OACI EBAW/ IATA ANR

L'altitude de l'aéroport Antwerpen Deurne est de 12 m = 39 ft. Il est situé à proximité de Antwerp (Belgique). La météo générale à 5 jours est disponible pour Borsbeek situé à 1.9 km.

METAR de l'aéroport Antwerpen Deurne - EBAW

EBAW 082020Z 23011KT CAVOK 08/04 Q0999 NOSIG

Décodage du METAR de l'aéroport Antwerpen Deurne (Belgique)

METAR émis par EBAW le dimanche 8 décembre 2019 à 20:20 heure TU, il y a 19 minutes.

La visibilité est de supérieure à 10 km = supérieure à 6.2 sm.

La température est de 8°C = 46 °F et le point rosée est de 4°C = 39 °F . Ce qui correspond à 76% d'humidité relative.

Le QNH est de 999 hPa = 29.5 inHg

Vent de 11 kt = 20 km/h, orienté à 230°.

Pas de nuages.

Aucun changement significatif dans les deux heures à venir

TAF de l'aéroport Antwerpen Deurne - EBAW

EBAW 081710Z 0818/0903 23014KT 9999 FEW018 SCT040 PROB40 TEMPO 0818/0820 23018G30KT 3500 SHRA BKN014CB BECMG 0900/0902 23015G25KT TEMPO 0900/0903 23022G38KT 2500 SHRAGS BKN012CB

EBAW 081710Z 0818/0903 23014KT 9999 quelques nuages à 018 nuages épars à 040 probabilité de 40% d'avoir temporairement 0818/0820 23018G30KT 3500 SHRA couverture nuageuse fragmentée à 014CB devenant 0900/0902 23015G25KT temporairement 0900/0903 23022G38KT 2500 SHRAGS couverture nuageuse fragmentée à 012CB

Aéroport à proximité de Antwerpen Deurne

Météo générale à 5 jours à Borsbeek (1.9 km)Aéroport Hoevenen (14 km)Aéroport Brasschaat - Army (17 km)Aéroport Zoersel Mil (22 km)Aéroport Bruxelle Grimbergen (27 km)Aéroport Woensdrecht (30 km)Aéroport Melsbroek Mil (31 km)

Vue aérienne de l'aéroport Antwerpen Deurne

NOTAM de l'aéroport Antwerpen Deurne

Les NOTAM sont fournis sans aucune garantie de leur actualité. Le pilote est le seul responsable de la vérification de sa validité avant de l'utiliser opérationnellement pour préparer un vol ou l'utiliser lors de sa navigation.

Pas de NOTAM

Sources des données